createdAt,value
2024-01-25T00:01:34.811Z,101639.91
2024-01-25T00:04:03.059Z,101644.19
2024-01-25T00:06:32.761Z,101631.75
2024-01-25T00:09:01.933Z,101651.50
2024-01-25T00:11:32.652Z,101645.59
2024-01-25T00:14:00.715Z,101647.75
2024-01-25T00:16:29.765Z,101641.63
2024-01-25T00:18:58.267Z,101629.66
2024-01-25T00:21:26.825Z,101637.09
2024-01-25T00:23:56.371Z,101637.69
2024-01-25T00:26:24.709Z,101611.44
2024-01-25T00:28:52.994Z,101632.81
2024-01-25T00:31:21.691Z,101631.41
2024-01-25T00:33:50.034Z,101638.25
2024-01-25T00:36:19.951Z,101655.66
2024-01-25T00:38:48.893Z,101653.69
2024-01-25T00:41:20.098Z,101653.69
2024-01-25T00:43:48.988Z,101647.38
2024-01-25T00:46:19.210Z,101653.28
2024-01-25T00:48:47.974Z,101660.28
2024-01-25T00:51:18.255Z,101665.72
2024-01-25T00:53:46.823Z,101660.88
2024-01-25T00:56:15.978Z,101625.09
2024-01-25T00:58:46.875Z,101638.34
2024-01-25T01:01:15.725Z,101658.56
2024-01-25T01:03:44.805Z,101666.09
2024-01-25T01:06:14.146Z,101663.69
2024-01-25T01:08:43.061Z,101670.28
2024-01-25T01:11:11.752Z,101671.53
2024-01-25T01:13:40.008Z,101668.97
2024-01-25T01:16:10.552Z,101676.09
2024-01-25T01:18:39.894Z,101671.69
2024-01-25T01:21:08.419Z,101678.53
2024-01-25T01:23:36.666Z,101674.41
2024-01-25T01:26:07.056Z,101678.69
2024-01-25T01:28:35.826Z,101678.81
2024-01-25T01:31:04.144Z,101669.44
2024-01-25T01:33:33.582Z,101675.13
2024-01-25T01:36:02.052Z,101673.94
2024-01-25T01:38:30.842Z,101680.84
2024-01-25T01:40:58.849Z,101689.41
2024-01-25T01:43:27.010Z,101695.13
2024-01-25T01:46:00.859Z,101694.31
2024-01-25T01:48:29.592Z,101688.75
2024-01-25T01:50:59.822Z,101705.88
2024-01-25T01:53:28.927Z,101708.34
2024-01-25T01:55:57.984Z,101708.47
2024-01-25T01:58:28.075Z,101702.06
2024-01-25T02:00:57.880Z,101708.34
2024-01-25T02:03:26.192Z,101708.91
2024-01-25T02:05:54.824Z,101710.19
2024-01-25T02:08:26.847Z,101720.91
2024-01-25T02:10:55.153Z,101710.63
2024-01-25T02:13:23.597Z,101706.34
2024-01-25T02:15:52.842Z,101715.50
2024-01-25T02:18:21.514Z,101707.91
2024-01-25T02:20:49.935Z,101699.94
2024-01-25T02:23:20.584Z,101703.06
2024-01-25T02:25:49.197Z,101706.06
2024-01-25T02:28:17.602Z,101711.75
2024-01-25T02:30:46.659Z,101713.50
2024-01-25T02:33:16.439Z,101712.34
2024-01-25T02:35:45.929Z,101716.06
2024-01-25T02:38:14.657Z,101725.22
2024-01-25T02:40:44.851Z,101713.25
2024-01-25T02:43:13.510Z,101732.38
2024-01-25T02:45:41.816Z,101741.53
2024-01-25T02:48:10.537Z,101740.81
2024-01-25T02:50:39.517Z,101741.25
2024-01-25T02:53:07.920Z,101741.53
2024-01-25T02:55:37.076Z,101745.94
2024-01-25T02:58:06.997Z,101731.38
2024-01-25T03:00:35.559Z,101730.41
2024-01-25T03:03:04.354Z,101733.78
2024-01-25T03:05:32.743Z,101730.09
2024-01-25T03:08:02.165Z,101725.94
2024-01-25T03:10:30.445Z,101738.94
2024-01-25T03:12:58.926Z,101730.97
2024-01-25T03:15:29.235Z,101725.81
2024-01-25T03:17:58.080Z,101733.53
2024-01-25T03:20:26.666Z,101731.38
2024-01-25T03:22:55.816Z,101756.97
2024-01-25T03:25:24.196Z,101709.41
2024-01-25T03:27:52.338Z,101742.38
2024-01-25T03:30:20.842Z,101741.25
2024-01-25T03:32:50.805Z,101743.69
2024-01-25T03:35:19.766Z,101746.81
2024-01-25T03:37:47.876Z,101746.97
2024-01-25T03:40:16.505Z,101744.09
2024-01-25T03:42:58.571Z,101740.41
2024-01-25T03:45:33.922Z,101747.81
2024-01-25T03:48:03.793Z,101744.09
2024-01-25T03:50:32.270Z,101736.13
2024-01-25T03:53:00.543Z,101759.53
2024-01-25T03:55:28.955Z,101753.81
2024-01-25T03:57:58.228Z,101753.38
2024-01-25T04:00:27.115Z,101750.97
2024-01-25T04:02:55.481Z,101768.78
2024-01-25T04:05:25.011Z,101771.38
2024-01-25T04:07:53.127Z,101779.50
2024-01-25T04:10:21.193Z,101783.47
2024-01-25T04:12:49.198Z,101763.50
2024-01-25T04:15:17.738Z,101782.63
2024-01-25T04:17:45.806Z,101790.63
2024-01-25T04:20:14.563Z,101794.66
2024-01-25T04:22:43.914Z,101784.22
2024-01-25T04:25:12.172Z,101784.09
2024-01-25T04:27:40.615Z,101787.34
2024-01-25T04:30:09.972Z,101781.34
2024-01-25T04:32:38.262Z,101794.31
2024-01-25T04:35:07.156Z,101791.78
2024-01-25T04:37:35.603Z,101773.78
2024-01-25T04:40:07.344Z,101783.63
2024-01-25T04:42:35.772Z,101782.19
2024-01-25T04:45:03.950Z,101796.44
2024-01-25T04:47:32.909Z,101791.72
2024-01-25T04:50:01.201Z,101802.25
2024-01-25T04:52:29.352Z,101804.53
2024-01-25T04:54:57.347Z,101809.25
2024-01-25T04:57:26.828Z,101812.94
2024-01-25T04:59:55.125Z,101810.09
2024-01-25T05:02:23.320Z,101803.81
2024-01-25T05:04:51.892Z,101809.22
2024-01-25T05:07:20.150Z,101807.06
2024-01-25T05:09:57.770Z,101811.19
2024-01-25T05:12:27.477Z,101815.91
2024-01-25T05:14:55.612Z,101819.50
2024-01-25T05:17:23.969Z,101821.34
2024-01-25T05:19:52.628Z,101824.78
2024-01-25T05:22:23.317Z,101825.38
2024-01-25T05:24:51.428Z,101834.22
2024-01-25T05:27:20.480Z,101833.06
2024-01-25T05:29:49.925Z,101821.47
2024-01-25T05:32:17.961Z,101829.91
2024-01-25T05:34:45.943Z,101833.16
2024-01-25T05:37:14.044Z,101826.56
2024-01-25T05:39:42.234Z,101838.84
2024-01-25T05:42:10.962Z,101836.56
2024-01-25T05:44:39.146Z,101839.31
2024-01-25T05:47:09.556Z,101840.56
2024-01-25T05:49:37.776Z,101824.66
2024-01-25T05:52:06.452Z,101843.56
2024-01-25T05:54:34.529Z,101856.63
2024-01-25T05:57:02.541Z,101871.19
2024-01-25T05:59:30.913Z,101839.22
2024-01-25T06:01:59.144Z,101857.75
2024-01-25T06:04:28.658Z,101851.22
2024-01-25T06:06:57.237Z,101849.25
2024-01-25T06:09:25.690Z,101858.34
2024-01-25T06:11:53.747Z,101849.47
2024-01-25T06:14:21.695Z,101862.88
2024-01-25T06:16:49.854Z,101847.59
2024-01-25T06:19:18.800Z,101862.88
2024-01-25T06:21:48.308Z,101862.53
2024-01-25T06:24:16.554Z,101864.72
2024-01-25T06:26:44.705Z,101849.59
2024-01-25T06:29:13.534Z,101840.75
2024-01-25T06:31:45.164Z,101838.78
2024-01-25T06:34:13.651Z,101856.81
2024-01-25T06:36:42.247Z,101864.72
2024-01-25T06:39:11.628Z,101871.34
2024-01-25T06:41:39.914Z,101875.56
2024-01-25T06:44:08.336Z,101874.38
2024-01-25T06:46:36.798Z,101877.28
2024-01-25T06:49:05.153Z,101880.97
2024-01-25T06:51:33.771Z,101881.16
2024-01-25T06:54:02.310Z,101887.94
2024-01-25T06:56:32.572Z,101889.91
2024-01-25T06:58:59.712Z,101894.34
2024-01-25T07:01:29.378Z,101903.13
2024-01-25T07:03:58.523Z,101906.09
2024-01-25T07:06:27.519Z,101915.31
2024-01-25T07:08:55.660Z,101915.22
2024-01-25T07:11:24.227Z,101925.13
2024-01-25T07:13:53.940Z,101927.63
2024-01-25T07:16:22.984Z,101921.72
2024-01-25T07:18:51.220Z,101922.84
2024-01-25T07:21:20.274Z,101927.19
2024-01-25T07:23:48.296Z,101924.75
2024-01-25T07:26:19.483Z,101922.06
2024-01-25T07:28:48.479Z,101917.50
2024-01-25T07:31:18.084Z,101932.63
2024-01-25T07:33:46.403Z,101929.72
2024-01-25T07:36:16.961Z,101936.09
2024-01-25T07:38:47.880Z,101928.13
2024-01-25T07:41:16.348Z,101927.03
2024-01-25T07:43:44.577Z,101931.69
2024-01-25T07:46:16.259Z,101936.00
2024-01-25T07:48:46.337Z,101937.31
2024-01-25T07:51:14.633Z,101925.78
2024-01-25T07:53:42.781Z,101926.75
2024-01-25T07:56:12.147Z,101931.94
2024-01-25T07:58:40.632Z,101936.84
2024-01-25T08:01:09.354Z,101933.13
2024-01-25T08:03:38.165Z,101941.50
2024-01-25T08:06:09.070Z,101948.00
2024-01-25T08:08:38.176Z,101931.53
2024-01-25T08:11:06.672Z,101937.53
2024-01-25T08:13:35.940Z,101946.41
2024-01-25T08:16:04.502Z,101958.69
2024-01-25T08:18:32.706Z,101952.78
2024-01-25T08:21:02.114Z,101961.63
2024-01-25T08:23:31.486Z,101955.22
2024-01-25T08:26:00.196Z,101958.88
2024-01-25T08:28:28.171Z,101964.53
2024-01-25T08:30:56.480Z,101958.44
2024-01-25T08:33:25.885Z,101962.84
2024-01-25T08:35:54.525Z,101940.34
2024-01-25T08:38:22.812Z,101961.50
2024-01-25T08:40:52.220Z,101967.19
2024-01-25T08:43:20.193Z,101974.47
2024-01-25T08:46:06.848Z,101973.72
2024-01-25T08:48:35.062Z,101991.75
2024-01-25T08:51:03.253Z,101980.91
2024-01-25T08:53:31.373Z,101992.91
2024-01-25T08:56:04.245Z,101994.50
2024-01-25T08:58:33.996Z,101994.56
2024-01-25T09:01:03.478Z,101992.13
2024-01-25T09:03:32.410Z,101988.22
2024-01-25T09:06:06.439Z,101988.16
2024-01-25T09:08:35.272Z,101980.03
2024-01-25T09:11:04.862Z,101982.22
2024-01-25T09:13:33.524Z,101984.53
2024-01-25T09:16:01.791Z,101980.88
2024-01-25T09:18:29.898Z,101980.63
2024-01-25T09:20:57.892Z,101982.59
2024-01-25T09:23:25.956Z,101993.16
2024-01-25T09:25:54.047Z,101988.22
2024-01-25T09:28:23.668Z,101993.44
2024-01-25T09:30:52.654Z,101999.44
2024-01-25T09:33:21.296Z,101999.44
2024-01-25T09:35:50.126Z,102004.59
2024-01-25T09:38:19.265Z,102011.69
2024-01-25T09:40:47.764Z,102016.31
2024-01-25T09:43:15.892Z,102014.06
2024-01-25T09:45:46.382Z,102006.81
2024-01-25T09:48:15.234Z,102014.31
2024-01-25T09:50:43.657Z,102015.72
2024-01-25T09:53:19.970Z,102022.03
2024-01-25T09:55:51.121Z,102020.91
2024-01-25T09:58:19.666Z,102031.50
2024-01-25T10:00:51.389Z,102031.44
2024-01-25T10:03:19.535Z,102038.63
2024-01-25T10:05:47.850Z,102040.91
2024-01-25T10:08:19.041Z,102042.28
2024-01-25T10:10:47.616Z,102041.97
2024-01-25T10:13:15.869Z,102025.59
2024-01-25T10:15:46.168Z,102034.66
2024-01-25T10:18:24.611Z,102039.84
2024-01-25T10:20:58.145Z,102042.84
2024-01-25T10:23:27.257Z,102054.00
2024-01-25T10:25:55.890Z,102051.28
2024-01-25T10:28:27.013Z,102056.38
2024-01-25T10:30:59.077Z,102045.28
2024-01-25T10:33:30.155Z,102044.81
2024-01-25T10:36:02.950Z,102043.69
2024-01-25T10:38:32.874Z,102038.16
2024-01-25T10:41:03.308Z,102050.44
2024-01-25T10:43:32.690Z,102052.41
2024-01-25T10:46:04.558Z,102045.00
2024-01-25T10:48:35.113Z,102055.84
2024-01-25T10:51:04.969Z,102060.75
2024-01-25T10:53:36.111Z,102047.81
2024-01-25T10:56:05.480Z,102055.75
2024-01-25T10:58:38.305Z,102053.19
2024-01-25T11:01:15.823Z,102045.00
2024-01-25T11:03:48.996Z,102047.72
2024-01-25T11:06:18.135Z,102049.13
2024-01-25T11:08:46.068Z,102041.75
2024-01-25T11:11:16.908Z,102025.69
2024-01-25T11:13:45.761Z,102021.16
2024-01-25T11:16:16.272Z,102041.63
2024-01-25T11:18:54.216Z,102044.03
2024-01-25T11:21:28.591Z,102038.34
2024-01-25T11:24:04.105Z,102041.47
2024-01-25T11:26:35.096Z,102040.88
2024-01-25T11:29:02.993Z,102036.47
2024-01-25T11:31:31.452Z,102034.78
2024-01-25T11:34:01.940Z,102023.66
2024-01-25T11:36:30.923Z,102019.94
2024-01-25T11:39:02.585Z,102008.78
2024-01-25T11:41:30.969Z,102014.94
2024-01-25T11:43:59.121Z,102006.22
2024-01-25T11:46:27.757Z,102005.31
2024-01-25T11:48:56.012Z,102005.19
2024-01-25T11:51:25.580Z,101996.59
2024-01-25T11:53:53.724Z,101998.06
2024-01-25T11:56:26.975Z,102007.47
2024-01-25T11:58:57.830Z,102006.78
2024-01-25T12:01:27.267Z,102007.91
2024-01-25T12:03:56.274Z,102013.94
2024-01-25T12:06:26.152Z,102001.63
2024-01-25T12:08:54.391Z,102004.19
2024-01-25T12:11:23.874Z,101995.75
2024-01-25T12:13:51.881Z,101994.19
2024-01-25T12:16:20.811Z,101989.75
2024-01-25T12:18:49.076Z,101984.31
2024-01-25T12:21:17.216Z,101991.03
2024-01-25T12:23:46.715Z,101990.47
2024-01-25T12:26:15.069Z,101983.47
2024-01-25T12:28:43.381Z,101986.19
2024-01-25T12:31:11.664Z,101986.56
2024-01-25T12:33:39.995Z,101972.13
2024-01-25T12:36:08.799Z,101983.47
2024-01-25T12:38:37.095Z,101987.88
2024-01-25T12:41:06.967Z,101986.28
2024-01-25T12:43:35.334Z,101987.31
2024-01-25T12:46:09.754Z,101985.03
2024-01-25T12:48:49.878Z,101991.59
2024-01-25T12:51:18.282Z,102002.50
2024-01-25T12:53:46.333Z,101990.63
2024-01-25T12:56:16.510Z,101985.59
2024-01-25T12:58:44.612Z,101977.88
2024-01-25T13:01:14.051Z,101970.16
2024-01-25T13:03:46.560Z,101961.53
2024-01-25T13:06:14.920Z,101959.56
2024-01-25T13:08:42.983Z,101966.97
2024-01-25T13:11:11.128Z,101955.25
2024-01-25T13:13:40.852Z,101955.81
2024-01-25T13:16:10.082Z,101955.84
2024-01-25T13:18:38.568Z,101957.00
2024-01-25T13:21:06.951Z,101963.03
2024-01-25T13:23:35.064Z,101957.59
2024-01-25T13:26:03.449Z,101958.44
2024-01-25T13:28:31.749Z,101958.16
2024-01-25T13:31:01.584Z,101968.00
2024-01-25T13:33:30.100Z,101959.13
2024-01-25T13:35:58.217Z,101976.44
2024-01-25T13:38:26.286Z,101983.56
2024-01-25T13:40:54.450Z,101987.31
2024-01-25T13:43:22.664Z,101994.16
2024-01-25T13:45:50.686Z,101964.13
2024-01-25T13:48:20.317Z,101972.13
2024-01-25T13:50:48.763Z,101981.25
2024-01-25T13:53:16.604Z,101980.41
2024-01-25T13:55:44.562Z,101985.00
2024-01-25T13:58:12.730Z,101973.53
2024-01-25T14:00:42.070Z,101985.81
2024-01-25T14:03:10.075Z,101990.78
2024-01-25T14:05:39.521Z,101983.50
2024-01-25T14:08:09.162Z,101985.66
2024-01-25T14:10:37.583Z,101989.97
2024-01-25T14:13:06.059Z,101988.97
2024-01-25T14:15:34.448Z,101979.44
2024-01-25T14:18:03.345Z,101969.41
2024-01-25T14:20:31.876Z,101974.69
2024-01-25T14:23:01.543Z,101955.09
2024-01-25T14:25:30.237Z,101986.97
2024-01-25T14:27:58.948Z,101967.69
2024-01-25T14:30:27.611Z,101955.22
2024-01-25T14:32:57.180Z,101956.63
2024-01-25T14:35:29.195Z,101934.88
2024-01-25T14:37:57.658Z,101949.06
2024-01-25T14:40:43.396Z,101960.34
2024-01-25T14:43:16.235Z,101961.88
2024-01-25T14:45:47.164Z,101943.00
2024-01-25T14:48:15.412Z,101961.72
2024-01-25T14:50:43.707Z,101960.28
2024-01-25T14:53:12.595Z,101948.00
2024-01-25T14:55:42.359Z,101953.41
2024-01-25T14:58:11.213Z,101934.97
2024-01-25T15:00:39.339Z,101962.25
2024-01-25T15:03:08.311Z,101973.94
2024-01-25T15:05:37.026Z,101962.56
2024-01-25T15:08:05.941Z,101958.88
2024-01-25T15:10:33.993Z,101951.78
2024-01-25T15:13:04.167Z,101941.16
2024-01-25T15:15:32.495Z,101941.66
2024-01-25T15:18:01.138Z,101932.03
2024-01-25T15:20:29.597Z,101931.00
2024-01-25T15:22:59.031Z,101927.69
2024-01-25T15:25:27.865Z,101936.53
2024-01-25T15:27:56.135Z,101944.03
2024-01-25T15:30:26.699Z,101936.19
2024-01-25T15:32:54.989Z,101950.53
2024-01-25T15:35:23.423Z,101946.03
2024-01-25T15:37:51.626Z,101938.78
2024-01-25T15:40:20.619Z,101940.13
2024-01-25T15:42:52.632Z,101940.06
2024-01-25T15:45:21.795Z,101904.91
2024-01-25T15:47:51.874Z,101946.41
2024-01-25T15:50:20.849Z,101932.97
2024-01-25T15:52:49.388Z,101927.56
2024-01-25T15:55:17.634Z,101931.63
2024-01-25T15:57:45.898Z,101927.81
2024-01-25T16:00:16.140Z,101923.28
2024-01-25T16:02:44.413Z,101932.88
2024-01-25T16:05:14.112Z,101923.97
2024-01-25T16:07:49.004Z,101928.81
2024-01-25T16:10:19.326Z,101931.41
2024-01-25T16:12:47.563Z,101928.16
2024-01-25T16:15:17.654Z,101926.03
2024-01-25T16:17:46.290Z,101925.63
2024-01-25T16:20:16.518Z,101917.69
2024-01-25T16:22:44.593Z,101918.69
2024-01-25T16:25:12.721Z,101923.78
2024-01-25T16:27:40.950Z,101918.34
2024-01-25T16:30:10.153Z,101915.47
2024-01-25T16:32:38.330Z,101915.59
2024-01-25T16:35:07.383Z,101913.13
2024-01-25T16:37:36.959Z,101905.97
2024-01-25T16:40:05.958Z,101908.25
2024-01-25T16:42:34.005Z,101902.63
2024-01-25T16:45:01.914Z,101910.25
2024-01-25T16:47:29.833Z,101893.03
2024-01-25T16:49:58.294Z,101900.41
2024-01-25T16:52:26.503Z,101898.97
2024-01-25T16:54:55.973Z,101886.19
2024-01-25T16:57:24.338Z,101878.25
2024-01-25T16:59:54.528Z,101877.75
2024-01-25T17:02:22.578Z,101871.75
2024-01-25T17:04:50.887Z,101863.28
2024-01-25T17:07:19.320Z,101862.84
2024-01-25T17:09:47.612Z,101868.63
2024-01-25T17:12:18.721Z,101863.91
2024-01-25T17:14:46.781Z,101858.59
2024-01-25T17:17:14.968Z,101858.06
2024-01-25T17:19:43.003Z,101859.50
2024-01-25T17:22:11.128Z,101864.47
2024-01-25T17:24:39.409Z,101863.38
2024-01-25T17:27:07.372Z,101862.03
2024-01-25T17:29:36.950Z,101843.34
2024-01-25T17:32:05.753Z,101843.13
2024-01-25T17:34:34.694Z,101840.44
2024-01-25T17:37:02.998Z,101835.72
2024-01-25T17:39:31.195Z,101832.69
2024-01-25T17:41:59.150Z,101826.19
2024-01-25T17:44:28.120Z,101818.50
2024-01-25T17:46:57.674Z,101827.56
2024-01-25T17:49:26.345Z,101828.81
2024-01-25T17:51:55.280Z,101823.31
2024-01-25T17:54:23.603Z,101817.66
2024-01-25T17:56:51.904Z,101818.28
2024-01-25T17:59:22.285Z,101820.34
2024-01-25T18:01:51.019Z,101824.03
2024-01-25T18:04:21.731Z,101827.09
2024-01-25T18:06:50.474Z,101828.34
2024-01-25T18:09:18.943Z,101831.28
2024-01-25T18:11:47.871Z,101827.59
2024-01-25T18:14:15.923Z,101822.09
2024-01-25T18:16:44.480Z,101820.59
2024-01-25T18:19:13.050Z,101823.66
2024-01-25T18:21:45.958Z,101823.91
2024-01-25T18:24:14.982Z,101829.69
2024-01-25T18:26:45.072Z,101824.28
2024-01-25T18:29:14.644Z,101819.63
2024-01-25T18:31:43.056Z,101819.75
2024-01-25T18:34:11.093Z,101813.38
2024-01-25T18:36:39.161Z,101805.59
2024-01-25T18:39:08.779Z,101800.78
2024-01-25T18:41:37.142Z,101809.41
2024-01-25T18:44:05.416Z,101808.94
2024-01-25T18:46:36.075Z,101819.63
2024-01-25T18:49:04.417Z,101827.69
2024-01-25T18:51:32.740Z,101826.34
2024-01-25T18:54:01.400Z,101817.06
2024-01-25T18:56:31.737Z,101816.31
2024-01-25T18:59:00.280Z,101811.78
2024-01-25T19:01:29.053Z,101786.34
2024-01-25T19:03:58.187Z,101804.03
2024-01-25T19:06:35.404Z,101808.69
2024-01-25T19:09:04.642Z,101813.09
2024-01-25T19:11:34.459Z,101810.44
2024-01-25T19:14:03.104Z,101805.03
2024-01-25T19:16:31.170Z,101799.41
2024-01-25T19:18:59.666Z,101799.16
2024-01-25T19:21:28.130Z,101801.19
2024-01-25T19:23:56.396Z,101795.69
2024-01-25T19:26:24.658Z,101781.66
2024-01-25T19:28:54.140Z,101787.38
2024-01-25T19:31:22.980Z,101791.88
2024-01-25T19:33:51.125Z,101773.69
2024-01-25T19:36:19.577Z,101779.03
2024-01-25T19:38:47.771Z,101786.53
2024-01-25T19:41:16.239Z,101779.16
2024-01-25T19:43:45.048Z,101779.47
2024-01-25T19:46:14.613Z,101779.06
2024-01-25T19:48:42.698Z,101774.53
2024-01-25T19:51:10.857Z,101778.25
2024-01-25T19:53:38.840Z,101775.41
2024-01-25T19:56:07.629Z,101769.31
2024-01-25T19:58:36.707Z,101763.88
2024-01-25T20:01:06.858Z,101766.53
2024-01-25T20:03:37.089Z,101724.84
2024-01-25T20:06:05.976Z,101730.00
2024-01-25T20:08:34.748Z,101770.31
2024-01-25T20:11:02.818Z,101766.75
2024-01-25T20:13:31.737Z,101751.28
2024-01-25T20:15:59.929Z,101759.59
2024-01-25T20:18:29.091Z,101743.34
2024-01-25T20:21:01.002Z,101746.53
2024-01-25T20:23:30.226Z,101744.09
2024-01-25T20:25:59.055Z,101746.16
2024-01-25T20:28:27.418Z,101749.63
2024-01-25T20:30:55.547Z,101747.50
2024-01-25T20:33:24.192Z,101744.56
2024-01-25T20:35:52.434Z,101727.94
2024-01-25T20:38:22.052Z,101738.91
2024-01-25T20:40:50.655Z,101731.31
2024-01-25T20:43:19.048Z,101736.47
2024-01-25T20:45:47.413Z,101727.88
2024-01-25T20:48:15.639Z,101730.59
2024-01-25T20:50:43.927Z,101729.25
2024-01-25T20:53:12.267Z,101737.00
2024-01-25T20:55:42.042Z,101724.72
2024-01-25T20:58:10.562Z,101726.94
2024-01-25T21:00:40.523Z,101734.69
2024-01-25T21:03:10.339Z,101723.13
2024-01-25T21:05:39.170Z,101720.16
2024-01-25T21:08:09.054Z,101718.03
2024-01-25T21:10:38.462Z,101713.38
2024-01-25T21:13:09.087Z,101720.22
2024-01-25T21:15:37.656Z,101715.09
2024-01-25T21:18:06.631Z,101707.84
2024-01-25T21:20:35.680Z,101710.72
2024-01-25T21:23:04.348Z,101701.16
2024-01-25T21:25:32.863Z,101717.16
2024-01-25T21:28:01.772Z,101706.00
2024-01-25T21:30:31.681Z,101708.16
2024-01-25T21:33:01.139Z,101713.00
2024-01-25T21:35:29.477Z,101697.31
2024-01-25T21:37:57.899Z,101706.34
2024-01-25T21:40:27.207Z,101710.78
2024-01-25T21:42:55.793Z,101706.50
2024-01-25T21:45:24.143Z,101714.31
2024-01-25T21:47:53.870Z,101709.16
2024-01-25T21:50:22.538Z,101707.44
2024-01-25T21:52:50.718Z,101700.59
2024-01-25T21:55:21.359Z,101696.19
2024-01-25T21:57:50.520Z,101701.88
2024-01-25T22:00:20.931Z,101688.31
2024-01-25T22:02:50.006Z,101690.03
2024-01-25T22:05:20.699Z,101678.63
2024-01-25T22:07:49.178Z,101681.34
2024-01-25T22:10:17.611Z,101672.22
2024-01-25T22:12:45.846Z,101668.81
2024-01-25T22:15:14.358Z,101670.75
2024-01-25T22:17:42.781Z,101663.75
2024-01-25T22:20:12.768Z,101666.94
2024-01-25T22:22:42.351Z,101672.38
2024-01-25T22:25:12.697Z,101662.56
2024-01-25T22:27:41.102Z,101665.28
2024-01-25T22:30:09.893Z,101660.69
2024-01-25T22:32:37.987Z,101659.13
2024-01-25T22:35:07.210Z,101652.94
2024-01-25T22:37:36.361Z,101667.97
2024-01-25T22:40:08.092Z,101660.41
2024-01-25T22:42:36.898Z,101664.25
2024-01-25T22:45:06.463Z,101662.38
2024-01-25T22:47:34.947Z,101652.66
2024-01-25T22:50:03.837Z,101655.09
2024-01-25T22:52:31.889Z,101643.59
2024-01-25T22:55:00.830Z,101637.75
2024-01-25T22:57:31.139Z,101633.16
2024-01-25T23:00:00.079Z,101630.75
2024-01-25T23:02:28.340Z,101637.34
2024-01-25T23:04:56.591Z,101634.75
2024-01-25T23:07:25.135Z,101627.06
2024-01-25T23:09:53.629Z,101604.50
2024-01-25T23:12:22.194Z,101623.34
2024-01-25T23:14:52.098Z,101631.59
2024-01-25T23:17:20.257Z,101610.94
2024-01-25T23:19:48.633Z,101612.06
2024-01-25T23:22:17.104Z,101624.19
2024-01-25T23:24:45.460Z,101605.94
2024-01-25T23:27:14.038Z,101630.47
2024-01-25T23:29:42.224Z,101619.91
2024-01-25T23:32:11.638Z,101617.34
2024-01-25T23:34:39.930Z,101620.63
2024-01-25T23:37:08.183Z,101618.63
2024-01-25T23:39:36.472Z,101613.63
2024-01-25T23:42:05.093Z,101610.63
2024-01-25T23:44:33.313Z,101602.75
2024-01-25T23:47:02.153Z,101597.03
2024-01-25T23:49:31.982Z,101604.75
2024-01-25T23:52:00.946Z,101598.88
2024-01-25T23:54:29.176Z,101591.75
2024-01-25T23:56:57.330Z,101588.47
2024-01-25T23:59:25.653Z,101571.94
